createdAt,value
2023-04-23T00:00:57.869Z,92.34
2023-04-23T00:01:57.662Z,92.44
2023-04-23T00:02:57.769Z,92.60
2023-04-23T00:03:57.963Z,92.30
2023-04-23T00:04:57.928Z,92.14
2023-04-23T00:05:57.603Z,92.34
2023-04-23T00:06:57.628Z,92.55
2023-04-23T00:07:57.575Z,92.65
2023-04-23T00:08:57.574Z,92.75
2023-04-23T00:09:57.562Z,92.65
2023-04-23T00:10:57.530Z,92.75
2023-04-23T00:11:57.561Z,92.96
2023-04-23T00:12:59.287Z,93.06
2023-04-23T00:13:57.494Z,92.96
2023-04-23T00:14:57.481Z,92.65
2023-04-23T00:15:57.512Z,92.55
2023-04-23T00:16:57.458Z,92.96
2023-04-23T00:17:57.476Z,93.26
2023-04-23T00:18:57.431Z,93.47
2023-04-23T00:19:57.423Z,93.57
2023-04-23T00:20:57.428Z,93.57
2023-04-23T00:21:57.396Z,93.57
2023-04-23T00:22:57.378Z,93.57
2023-04-23T00:23:57.360Z,93.57
2023-04-23T00:24:57.356Z,93.57
2023-04-23T00:25:57.332Z,93.67
2023-04-23T00:26:57.328Z,93.88
2023-04-23T00:27:57.343Z,94.08
2023-04-23T00:28:57.301Z,93.84
2023-04-23T00:29:57.282Z,93.77
2023-04-23T00:30:57.298Z,93.88
2023-04-23T00:31:57.309Z,93.84
2023-04-23T00:32:57.267Z,93.98
2023-04-23T00:33:57.247Z,93.88
2023-04-23T00:34:57.218Z,93.73
2023-04-23T00:35:57.200Z,93.88
2023-04-23T00:36:57.189Z,93.98
2023-04-23T00:37:57.178Z,94.08
2023-04-23T00:38:57.171Z,93.98
2023-04-23T00:39:57.147Z,93.98
2023-04-23T00:40:57.148Z,94.29
2023-04-23T00:41:57.150Z,94.29
2023-04-23T00:42:57.113Z,94.29
2023-04-23T00:43:57.130Z,94.39
2023-04-23T00:44:57.103Z,94.59
2023-04-23T00:45:57.113Z,94.70
2023-04-23T00:46:57.058Z,94.80
2023-04-23T00:47:57.090Z,94.80
2023-04-23T00:48:57.041Z,94.59
2023-04-23T00:49:57.029Z,94.59
2023-04-23T00:50:57.002Z,94.59
2023-04-23T00:51:56.991Z,94.80
2023-04-23T00:52:56.992Z,94.29
2023-04-23T00:53:56.971Z,94.18
2023-04-23T00:54:56.978Z,94.29
2023-04-23T00:55:56.939Z,94.43
2023-04-23T00:56:56.936Z,94.90
2023-04-23T00:57:56.911Z,95.10
2023-04-23T00:58:56.899Z,95.36
2023-04-23T00:59:56.923Z,95.21
2023-04-23T01:00:56.945Z,95.41
2023-04-23T01:01:56.865Z,95.56
2023-04-23T01:02:56.909Z,95.87
2023-04-23T01:03:56.955Z,95.97
2023-04-23T01:04:56.834Z,95.76
2023-04-23T01:05:56.834Z,95.66
2023-04-23T01:06:56.798Z,95.76
2023-04-23T01:07:56.782Z,95.56
2023-04-23T01:08:56.776Z,95.46
2023-04-23T01:09:56.760Z,95.56
2023-04-23T01:10:56.742Z,95.31
2023-04-23T01:11:56.731Z,94.90
2023-04-23T01:12:56.726Z,94.64
2023-04-23T01:13:56.712Z,94.29
2023-04-23T01:14:56.689Z,94.02
2023-04-23T01:15:56.712Z,93.92
2023-04-23T01:16:56.672Z,93.98
2023-04-23T01:17:56.695Z,93.71
2023-04-23T01:18:56.649Z,93.67
2023-04-23T01:19:56.627Z,93.88
2023-04-23T01:20:56.615Z,93.98
2023-04-23T01:21:56.601Z,94.18
2023-04-23T01:22:56.590Z,93.98
2023-04-23T01:23:56.573Z,94.29
2023-04-23T01:24:56.561Z,94.18
2023-04-23T01:25:56.548Z,94.08
2023-04-23T01:26:56.543Z,94.08
2023-04-23T01:27:56.540Z,94.08
2023-04-23T01:28:56.515Z,94.59
2023-04-23T01:29:56.501Z,94.59
2023-04-23T01:30:56.523Z,94.18
2023-04-23T01:31:56.498Z,94.08
2023-04-23T01:32:56.566Z,94.18
2023-04-23T01:33:56.448Z,94.49
2023-04-23T01:34:56.442Z,94.49
2023-04-23T01:35:56.427Z,93.88
2023-04-23T01:36:56.415Z,93.88
2023-04-23T01:37:56.398Z,93.98
2023-04-23T01:38:56.376Z,94.29
2023-04-23T01:39:56.373Z,94.49
2023-04-23T01:40:56.347Z,94.59
2023-04-23T01:41:56.340Z,95.10
2023-04-23T01:42:56.328Z,95.21
2023-04-23T01:43:56.315Z,95.21
2023-04-23T01:44:56.299Z,95.31
2023-04-23T01:45:56.312Z,95.41
2023-04-23T01:46:56.270Z,95.66
2023-04-23T01:47:56.528Z,95.76
2023-04-23T01:48:56.246Z,95.87
2023-04-23T01:49:56.257Z,96.17
2023-04-23T01:50:56.220Z,96.38
2023-04-23T01:51:56.223Z,96.79
2023-04-23T01:52:56.207Z,97.20
2023-04-23T01:53:56.181Z,97.40
2023-04-23T01:54:56.189Z,97.61
2023-04-23T01:55:56.155Z,97.61
2023-04-23T01:56:56.146Z,97.71
2023-04-23T01:57:56.124Z,97.71
2023-04-23T01:58:56.110Z,97.71
2023-04-23T01:59:56.093Z,97.61
2023-04-23T02:00:56.082Z,97.40
2023-04-23T02:01:56.095Z,97.50
2023-04-23T02:02:56.131Z,97.50
2023-04-23T02:03:56.189Z,97.50
2023-04-23T02:04:56.042Z,97.50
2023-04-23T02:05:56.026Z,97.65
2023-04-23T02:06:56.007Z,97.91
2023-04-23T02:07:55.993Z,98.22
2023-04-23T02:08:55.986Z,98.37
2023-04-23T02:09:55.976Z,98.47
2023-04-23T02:10:55.982Z,98.47
2023-04-23T02:11:55.946Z,98.47
2023-04-23T02:12:55.936Z,98.37
2023-04-23T02:13:55.923Z,98.37
2023-04-23T02:14:55.898Z,98.47
2023-04-23T02:15:55.914Z,98.58
2023-04-23T02:16:55.892Z,98.63
2023-04-23T02:17:55.867Z,98.63
2023-04-23T02:18:55.852Z,98.63
2023-04-23T02:19:55.872Z,98.63
2023-04-23T02:20:55.827Z,98.68
2023-04-23T02:21:55.832Z,98.58
2023-04-23T02:22:55.807Z,98.63
2023-04-23T02:23:55.790Z,98.63
2023-04-23T02:24:55.778Z,98.74
2023-04-23T02:25:55.757Z,98.83
2023-04-23T02:26:55.755Z,98.83
2023-04-23T02:27:55.728Z,98.63
2023-04-23T02:28:55.726Z,98.63
2023-04-23T02:29:55.704Z,98.78
2023-04-23T02:30:55.702Z,98.74
2023-04-23T02:31:55.751Z,98.88
2023-04-23T02:32:55.760Z,98.88
2023-04-23T02:33:55.658Z,98.94
2023-04-23T02:34:55.659Z,98.94
2023-04-23T02:35:55.660Z,99.04
2023-04-23T02:36:55.627Z,99.09
2023-04-23T02:37:55.612Z,99.09
2023-04-23T02:38:55.589Z,99.09
2023-04-23T02:39:55.588Z,99.19
2023-04-23T02:40:55.589Z,99.19
2023-04-23T02:41:55.553Z,99.29
2023-04-23T02:42:55.534Z,99.40
2023-04-23T02:43:55.529Z,99.50
2023-04-23T02:44:55.530Z,99.50
2023-04-23T02:45:55.503Z,99.60
2023-04-23T02:46:55.517Z,99.70
2023-04-23T02:47:55.527Z,99.80
2023-04-23T02:48:55.470Z,99.91
2023-04-23T02:49:55.449Z,99.99
2023-04-23T02:50:55.442Z,99.99
2023-04-23T02:51:55.450Z,99.99
2023-04-23T02:52:55.404Z,99.99
2023-04-23T02:53:55.396Z,99.99
2023-04-23T02:54:55.386Z,99.99
2023-04-23T02:55:55.373Z,99.99
2023-04-23T02:56:55.350Z,99.99
2023-04-23T02:57:55.333Z,99.99
2023-04-23T02:58:55.330Z,99.99
2023-04-23T02:59:55.318Z,99.99
2023-04-23T03:00:55.328Z,99.99
2023-04-23T03:01:55.329Z,99.99
2023-04-23T03:02:55.452Z,99.99
2023-04-23T03:03:55.546Z,99.99
2023-04-23T03:04:55.268Z,99.99
2023-04-23T03:05:55.256Z,99.99
2023-04-23T03:06:55.215Z,99.99
2023-04-23T03:07:55.229Z,99.99
2023-04-23T03:08:55.200Z,99.99
2023-04-23T03:09:55.186Z,99.99
2023-04-23T03:10:55.172Z,99.99
2023-04-23T03:11:55.153Z,99.99
2023-04-23T03:12:55.148Z,99.99
2023-04-23T03:13:55.132Z,99.99
2023-04-23T03:14:55.114Z,99.99
2023-04-23T03:15:55.100Z,99.99
2023-04-23T03:16:55.122Z,99.99
2023-04-23T03:17:55.120Z,99.99
2023-04-23T03:18:55.071Z,99.99
2023-04-23T03:19:55.068Z,99.99
2023-04-23T03:20:55.045Z,99.99
2023-04-23T03:21:55.029Z,99.99
2023-04-23T03:22:55.035Z,99.99
2023-04-23T03:23:55.018Z,99.99
2023-04-23T03:24:54.999Z,99.99
2023-04-23T03:25:54.970Z,99.99
2023-04-23T03:26:54.969Z,99.99
2023-04-23T03:27:54.959Z,99.99
2023-04-23T03:28:54.938Z,99.99
2023-04-23T03:29:54.919Z,99.99
2023-04-23T03:30:54.964Z,99.99
2023-04-23T03:31:54.908Z,99.99
2023-04-23T03:32:54.930Z,99.99
2023-04-23T03:33:54.884Z,99.99
2023-04-23T03:34:54.866Z,99.99
2023-04-23T03:35:54.852Z,99.99
2023-04-23T03:36:54.831Z,99.99
2023-04-23T03:37:54.828Z,99.99
2023-04-23T03:38:54.798Z,99.99
2023-04-23T03:39:54.828Z,99.99
2023-04-23T03:40:54.793Z,99.99
2023-04-23T03:41:54.770Z,99.99
2023-04-23T03:42:54.754Z,99.99
2023-04-23T03:43:54.738Z,99.99
2023-04-23T03:44:54.745Z,99.99
2023-04-23T03:45:54.740Z,99.99
2023-04-23T03:46:54.699Z,99.99
2023-04-23T03:47:54.784Z,99.99
2023-04-23T03:48:54.681Z,99.99
2023-04-23T03:49:54.667Z,99.99
2023-04-23T03:50:54.672Z,99.99
2023-04-23T03:51:54.633Z,99.99
2023-04-23T03:52:54.620Z,99.99
2023-04-23T03:53:54.606Z,99.99
2023-04-23T03:54:54.596Z,99.99
2023-04-23T03:55:54.609Z,99.99
2023-04-23T03:56:54.591Z,99.99
2023-04-23T03:57:54.558Z,99.99
2023-04-23T03:58:54.544Z,99.99
2023-04-23T03:59:54.535Z,99.99
2023-04-23T04:00:54.539Z,99.99
2023-04-23T04:01:54.508Z,99.99
2023-04-23T04:02:54.727Z,99.99
2023-04-23T04:03:54.686Z,99.99
2023-04-23T04:04:54.608Z,99.99
2023-04-23T04:05:54.579Z,99.99
2023-04-23T04:06:54.437Z,99.99
2023-04-23T04:07:54.434Z,99.99
2023-04-23T04:08:54.423Z,99.99
2023-04-23T04:09:54.412Z,99.99
2023-04-23T04:10:54.406Z,99.99
2023-04-23T04:11:54.413Z,99.99
2023-04-23T04:12:54.368Z,99.99
2023-04-23T04:13:54.371Z,99.99
2023-04-23T04:14:54.349Z,99.99
2023-04-23T04:15:54.378Z,99.99
2023-04-23T04:16:54.329Z,99.99
2023-04-23T04:17:54.389Z,99.99
2023-04-23T04:18:56.335Z,99.99
2023-04-23T04:19:54.292Z,99.99
2023-04-23T04:20:54.297Z,99.99
2023-04-23T04:21:54.258Z,99.99
2023-04-23T04:22:54.236Z,99.99
2023-04-23T04:23:54.234Z,99.99
2023-04-23T04:24:54.246Z,99.99
2023-04-23T04:25:54.205Z,99.99
2023-04-23T04:26:54.212Z,99.99
2023-04-23T04:27:54.191Z,99.99
2023-04-23T04:28:54.166Z,99.99
2023-04-23T04:29:54.153Z,99.99
2023-04-23T04:30:54.143Z,99.99
2023-04-23T04:31:54.178Z,99.99
2023-04-23T04:32:54.181Z,99.99
2023-04-23T04:33:54.091Z,99.99
2023-04-23T04:34:54.091Z,99.99
2023-04-23T04:35:54.091Z,99.99
2023-04-23T04:36:54.067Z,99.99
2023-04-23T04:37:54.051Z,99.99
2023-04-23T04:38:54.027Z,99.99
2023-04-23T04:39:54.025Z,99.99
2023-04-23T04:40:54.014Z,99.99
2023-04-23T04:41:53.998Z,99.99
2023-04-23T04:42:53.971Z,99.99
2023-04-23T04:43:53.981Z,99.99
2023-04-23T04:44:53.957Z,99.99
2023-04-23T04:45:53.948Z,99.99
2023-04-23T04:46:54.050Z,99.99
2023-04-23T04:47:53.932Z,99.99
2023-04-23T04:48:53.894Z,99.99
2023-04-23T04:49:53.890Z,99.99
2023-04-23T04:50:53.884Z,99.99
2023-04-23T04:51:53.866Z,99.99
2023-04-23T04:52:53.849Z,99.99
2023-04-23T04:53:53.838Z,99.99
2023-04-23T04:54:53.818Z,99.99
2023-04-23T04:55:53.812Z,99.99
2023-04-23T04:56:53.791Z,99.99
2023-04-23T04:57:53.787Z,99.99
2023-04-23T04:58:53.770Z,99.99
2023-04-23T04:59:53.774Z,99.99
2023-04-23T05:00:53.749Z,99.99
2023-04-23T05:01:53.737Z,99.99
2023-04-23T05:02:53.878Z,99.99
2023-04-23T05:03:53.923Z,99.99
2023-04-23T05:04:53.686Z,99.99
2023-04-23T05:05:53.674Z,99.99
2023-04-23T05:06:53.668Z,99.99
2023-04-23T05:07:53.653Z,99.99
2023-04-23T05:08:53.643Z,99.99
2023-04-23T05:09:53.629Z,99.99
2023-04-23T05:10:53.612Z,99.99
2023-04-23T05:11:53.596Z,99.99
2023-04-23T05:12:53.592Z,99.99
2023-04-23T05:13:53.567Z,99.99
2023-04-23T05:14:54.329Z,99.99
2023-04-23T05:15:53.579Z,99.99
2023-04-23T05:16:53.636Z,99.99
2023-04-23T05:17:53.729Z,99.99
2023-04-23T05:18:53.515Z,99.99
2023-04-23T05:19:53.494Z,99.99
2023-04-23T05:20:53.494Z,99.99
2023-04-23T05:21:53.468Z,99.99
2023-04-23T05:22:53.452Z,99.99
2023-04-23T05:23:53.449Z,99.99
2023-04-23T05:24:53.430Z,99.99
2023-04-23T05:25:54.376Z,99.99
2023-04-23T05:26:53.400Z,99.99
2023-04-23T05:27:53.397Z,99.99
2023-04-23T05:28:53.385Z,99.99
2023-04-23T05:29:53.367Z,99.99
2023-04-23T05:30:53.348Z,99.99
2023-04-23T05:31:53.424Z,99.99
2023-04-23T05:32:53.395Z,99.99
2023-04-23T05:33:53.322Z,99.99
2023-04-23T05:34:53.295Z,99.99
2023-04-23T05:35:53.290Z,99.99
2023-04-23T05:36:53.274Z,99.99
2023-04-23T05:37:53.280Z,99.99
2023-04-23T05:38:53.242Z,99.99
2023-04-23T05:39:53.245Z,99.99
2023-04-23T05:40:53.234Z,99.99
2023-04-23T05:41:53.205Z,99.99
2023-04-23T05:42:53.200Z,99.99
2023-04-23T05:43:53.174Z,99.99
2023-04-23T05:44:53.171Z,99.90
2023-04-23T05:45:53.182Z,99.59
2023-04-23T05:46:53.134Z,99.59
2023-04-23T05:47:53.194Z,99.49
2023-04-23T05:48:53.116Z,98.67
2023-04-23T05:49:53.103Z,98.77
2023-04-23T05:50:53.088Z,98.67
2023-04-23T05:51:53.080Z,98.62
2023-04-23T05:52:53.061Z,98.32
2023-04-23T05:53:53.042Z,98.32
2023-04-23T05:54:53.052Z,98.21
2023-04-23T05:55:53.024Z,98.11
2023-04-23T05:56:54.695Z,97.80
2023-04-23T05:57:52.998Z,97.65
2023-04-23T05:58:52.983Z,97.55
2023-04-23T05:59:52.968Z,97.55
2023-04-23T06:00:53.034Z,97.24
2023-04-23T06:01:52.934Z,96.42
2023-04-23T06:02:53.085Z,95.91
2023-04-23T06:03:53.123Z,95.91
2023-04-23T06:04:53.273Z,95.91
2023-04-23T06:05:53.023Z,96.01
2023-04-23T06:06:52.880Z,96.32
2023-04-23T06:07:52.863Z,97.04
2023-04-23T06:08:52.851Z,97.14
2023-04-23T06:09:52.836Z,97.04
2023-04-23T06:10:52.815Z,96.83
2023-04-23T06:11:52.799Z,96.83
2023-04-23T06:12:52.810Z,96.63
2023-04-23T06:13:52.804Z,96.42
2023-04-23T06:14:52.765Z,96.53
2023-04-23T06:15:52.787Z,96.73
2023-04-23T06:16:52.753Z,96.73
2023-04-23T06:17:52.767Z,96.83
2023-04-23T06:18:52.718Z,96.83
2023-04-23T06:19:52.729Z,96.48
2023-04-23T06:20:52.686Z,96.69
2023-04-23T06:21:52.681Z,96.99
2023-04-23T06:22:52.673Z,96.38
2023-04-23T06:23:52.661Z,96.42
2023-04-23T06:24:52.637Z,96.73
2023-04-23T06:25:52.627Z,97.04
2023-04-23T06:26:52.608Z,97.14
2023-04-23T06:27:52.598Z,97.24
2023-04-23T06:28:52.593Z,97.34
2023-04-23T06:29:52.570Z,97.14
2023-04-23T06:30:52.573Z,97.34
2023-04-23T06:31:52.677Z,97.60
2023-04-23T06:32:52.563Z,98.11
2023-04-23T06:33:52.536Z,98.00
2023-04-23T06:35:00.999Z,98.00
2023-04-23T06:35:53.554Z,98.11
2023-04-23T06:36:52.501Z,98.32
2023-04-23T06:37:52.472Z,98.11
2023-04-23T06:38:52.466Z,97.60
2023-04-23T06:39:52.434Z,97.29
2023-04-23T06:40:52.439Z,97.39
2023-04-23T06:41:52.423Z,97.60
2023-04-23T06:42:52.404Z,97.70
2023-04-23T06:43:52.386Z,97.55
2023-04-23T06:44:52.392Z,97.24
2023-04-23T06:45:52.365Z,97.24
2023-04-23T06:46:52.389Z,96.79
2023-04-23T06:47:52.380Z,96.28
2023-04-23T06:48:52.325Z,95.97
2023-04-23T06:49:52.314Z,95.56
2023-04-23T06:50:52.300Z,95.56
2023-04-23T06:51:52.320Z,95.46
2023-04-23T06:52:52.264Z,94.95
2023-04-23T06:53:52.258Z,95.56
2023-04-23T06:54:52.235Z,95.97
2023-04-23T06:55:52.232Z,95.76
2023-04-23T06:56:52.246Z,95.31
2023-04-23T06:57:52.211Z,94.60
2023-04-23T06:58:52.189Z,91.37
2023-04-23T06:59:52.186Z,89.73
2023-04-23T07:00:52.185Z,89.94
2023-04-23T07:01:52.167Z,89.08
2023-04-23T07:02:52.264Z,88.22
2023-04-23T07:03:52.147Z,87.06
2023-04-23T07:04:52.129Z,86.35
2023-04-23T07:05:52.110Z,87.00
2023-04-23T07:06:52.100Z,87.92
2023-04-23T07:07:52.102Z,88.67
2023-04-23T07:08:52.099Z,89.28
2023-04-23T07:09:52.055Z,89.94
2023-04-23T07:10:52.045Z,89.84
2023-04-23T07:11:52.032Z,89.84
2023-04-23T07:12:52.031Z,90.25
2023-04-23T07:13:52.022Z,90.59
2023-04-23T07:14:52.015Z,90.70
2023-04-23T07:15:51.990Z,90.90
2023-04-23T07:16:52.002Z,90.94
2023-04-23T07:17:52.001Z,91.05
2023-04-23T07:18:51.952Z,91.09
2023-04-23T07:19:51.953Z,92.21
2023-04-23T07:20:51.962Z,92.72
2023-04-23T07:21:51.918Z,93.07
2023-04-23T07:22:51.912Z,93.48
2023-04-23T07:23:51.910Z,93.28
2023-04-23T07:24:51.879Z,93.69
2023-04-23T07:25:51.870Z,94.10
2023-04-23T07:26:51.846Z,93.79
2023-04-23T07:27:51.842Z,93.79
2023-04-23T07:28:52.882Z,93.69
2023-04-23T07:29:51.813Z,92.87
2023-04-23T07:30:51.802Z,92.60
2023-04-23T07:31:51.816Z,91.99
2023-04-23T07:32:51.916Z,92.85
2023-04-23T07:33:51.762Z,93.57
2023-04-23T07:34:51.746Z,93.88
2023-04-23T07:35:51.742Z,93.26
2023-04-23T07:36:51.718Z,93.57
2023-04-23T07:37:51.712Z,93.47
2023-04-23T07:38:51.702Z,93.06
2023-04-23T07:39:51.708Z,92.75
2023-04-23T07:40:51.680Z,93.67
2023-04-23T07:41:51.649Z,94.59
2023-04-23T07:42:51.657Z,94.39
2023-04-23T07:43:51.640Z,94.29
2023-04-23T07:44:51.629Z,95.10
2023-04-23T07:45:51.660Z,94.90
2023-04-23T07:46:51.600Z,94.49
2023-04-23T07:47:51.618Z,94.90
2023-04-23T07:48:51.566Z,95.00
2023-04-23T07:49:51.548Z,94.70
2023-04-23T07:50:51.551Z,94.08
2023-04-23T07:51:51.534Z,94.29
2023-04-23T07:52:51.507Z,94.49
2023-04-23T07:53:51.505Z,93.88
2023-04-23T07:54:51.489Z,94.80
2023-04-23T07:55:51.569Z,94.29
2023-04-23T07:56:51.464Z,94.08
2023-04-23T07:57:51.443Z,94.29
2023-04-23T07:58:51.438Z,95.82
2023-04-23T07:59:51.428Z,96.13
2023-04-23T08:00:51.411Z,95.92
2023-04-23T08:01:51.388Z,95.51
2023-04-23T08:02:51.475Z,94.59
2023-04-23T08:03:51.713Z,94.18
2023-04-23T08:04:51.487Z,94.80
2023-04-23T08:05:51.357Z,94.08
2023-04-23T08:06:51.336Z,94.49
2023-04-23T08:07:51.329Z,94.39
2023-04-23T08:08:51.317Z,94.75
2023-04-23T08:09:51.318Z,95.17
2023-04-23T08:10:51.284Z,95.32
2023-04-23T08:11:51.292Z,94.71
2023-04-23T08:12:51.284Z,93.59
2023-04-23T08:13:51.251Z,92.32
2023-04-23T08:14:51.220Z,91.60
2023-04-23T08:15:51.240Z,91.46
2023-04-23T08:16:51.196Z,91.56
2023-04-23T08:17:51.194Z,91.35
2023-04-23T08:19:04.230Z,89.20
2023-04-23T08:19:52.197Z,89.72
2023-04-23T08:20:51.143Z,89.82
2023-04-23T08:21:51.137Z,89.00
2023-04-23T08:22:51.125Z,89.11
2023-04-23T08:23:51.135Z,89.41
2023-04-23T08:24:51.089Z,88.65
2023-04-23T08:25:51.076Z,89.71
2023-04-23T08:26:51.075Z,87.04
2023-04-23T08:27:51.080Z,85.17
2023-04-23T08:28:51.046Z,83.46
2023-04-23T08:29:51.033Z,80.24
2023-04-23T08:30:51.023Z,77.52
2023-04-23T08:31:51.022Z,77.05
2023-04-23T08:32:51.229Z,78.19
2023-04-23T08:33:50.971Z,77.56
2023-04-23T08:34:50.978Z,78.04
2023-04-23T08:35:50.946Z,78.30
2023-04-23T08:36:50.942Z,80.47
2023-04-23T08:37:50.926Z,81.02
2023-04-23T08:38:50.914Z,82.14
2023-04-23T08:39:50.893Z,82.54
2023-04-23T08:40:50.882Z,82.34
2023-04-23T08:41:50.876Z,80.11
2023-04-23T08:42:50.851Z,79.94
2023-04-23T08:43:50.887Z,79.98
2023-04-23T08:44:50.831Z,80.59
2023-04-23T08:45:50.855Z,82.56
2023-04-23T08:46:50.863Z,83.27
2023-04-23T08:47:50.834Z,81.81
2023-04-23T08:48:50.779Z,80.35
2023-04-23T08:49:50.781Z,78.55
2023-04-23T08:50:50.749Z,81.10
2023-04-23T08:51:50.749Z,80.38
2023-04-23T08:52:50.738Z,79.53
2023-04-23T08:53:50.746Z,81.30
2023-04-23T08:54:50.721Z,82.01
2023-04-23T08:55:50.711Z,81.20
2023-04-23T08:56:50.680Z,80.99
2023-04-23T08:57:50.670Z,82.46
2023-04-23T08:58:50.664Z,82.50
2023-04-23T08:59:50.670Z,83.31
2023-04-23T09:00:50.650Z,83.42
2023-04-23T09:01:50.631Z,82.74
2023-04-23T09:02:51.020Z,83.15
2023-04-23T09:03:50.619Z,83.45
2023-04-23T09:04:51.431Z,83.15
2023-04-23T09:05:50.560Z,84.47
2023-04-23T09:06:50.561Z,84.09
2023-04-23T09:07:50.526Z,81.87
2023-04-23T09:08:50.524Z,80.15
2023-04-23T09:09:50.512Z,78.82
2023-04-23T09:10:50.495Z,78.34
2023-04-23T09:11:51.810Z,79.77
2023-04-23T09:12:50.465Z,77.19
2023-04-23T09:13:50.469Z,77.19
2023-04-23T09:14:50.451Z,75.87
2023-04-23T09:15:50.451Z,74.68
2023-04-23T09:16:50.491Z,76.14
2023-04-23T09:17:50.441Z,77.36
2023-04-23T09:18:50.388Z,76.45
2023-04-23T09:19:50.379Z,76.48
2023-04-23T09:20:50.379Z,76.71
2023-04-23T09:21:50.369Z,75.12
2023-04-23T09:22:50.348Z,73.12
2023-04-23T09:23:50.329Z,72.08
2023-04-23T09:24:50.317Z,73.06
2023-04-23T09:25:50.296Z,74.71
2023-04-23T09:26:50.278Z,75.32
2023-04-23T09:27:50.280Z,75.63
2023-04-23T09:28:50.289Z,75.83
2023-04-23T09:29:50.249Z,76.61
2023-04-23T09:30:50.231Z,75.96
2023-04-23T09:31:50.277Z,74.21
2023-04-23T09:32:50.261Z,75.76
2023-04-23T09:33:50.206Z,74.13
2023-04-23T09:34:50.178Z,71.53
2023-04-23T09:35:50.161Z,73.86
2023-04-23T09:36:50.160Z,71.97
2023-04-23T09:37:50.132Z,70.89
2023-04-23T09:38:50.132Z,72.08
2023-04-23T09:39:50.119Z,73.33
2023-04-23T09:40:50.096Z,74.14
2023-04-23T09:41:50.095Z,74.01
2023-04-23T09:42:50.109Z,76.64
2023-04-23T09:43:50.061Z,76.20
2023-04-23T09:44:50.058Z,75.96
2023-04-23T09:45:50.086Z,73.63
2023-04-23T09:46:50.030Z,72.72
2023-04-23T09:47:50.097Z,73.87
2023-04-23T09:48:50.005Z,74.74
2023-04-23T09:49:49.999Z,75.42
2023-04-23T09:50:49.977Z,73.90
2023-04-23T09:51:50.011Z,75.28
2023-04-23T09:52:49.944Z,75.25
2023-04-23T09:53:49.929Z,71.00
2023-04-23T09:54:49.943Z,71.33
2023-04-23T09:55:49.915Z,71.30
2023-04-23T09:56:49.906Z,72.31
2023-04-23T09:57:49.882Z,72.01
2023-04-23T09:58:49.868Z,70.76
2023-04-23T09:59:53.037Z,68.36
2023-04-23T10:00:50.875Z,69.92
2023-04-23T10:01:49.876Z,71.94
2023-04-23T10:02:49.961Z,71.33
2023-04-23T10:03:49.956Z,72.14
2023-04-23T10:04:49.940Z,70.89
2023-04-23T10:06:01.199Z,69.61
2023-04-23T10:07:02.392Z,69.92
2023-04-23T10:07:50.787Z,72.11
2023-04-23T10:08:49.748Z,71.20
2023-04-23T10:09:49.729Z,70.89
2023-04-23T10:11:49.703Z,70.49
2023-04-23T10:12:54.289Z,71.67
2023-04-23T10:13:49.677Z,70.56
2023-04-23T10:14:49.664Z,71.84
2023-04-23T10:15:49.691Z,67.42
2023-04-23T10:16:49.665Z,68.13
2023-04-23T10:17:49.638Z,70.49
2023-04-23T10:18:49.605Z,70.69
2023-04-23T10:19:49.641Z,69.54
2023-04-23T10:20:49.593Z,69.74
2023-04-23T10:21:54.926Z,68.33
2023-04-23T10:22:50.581Z,68.56
2023-04-23T10:23:49.550Z,69.37
2023-04-23T10:24:49.683Z,69.61
2023-04-23T10:25:49.532Z,68.93
2023-04-23T10:26:49.506Z,69.98
2023-04-23T10:27:54.295Z,72.89
2023-04-23T10:28:49.477Z,70.86
2023-04-23T10:29:49.467Z,69.84
2023-04-23T10:30:49.457Z,70.42
2023-04-23T10:31:49.438Z,70.72
2023-04-23T10:32:49.562Z,70.18
2023-04-23T10:33:58.376Z,71.09
2023-04-23T10:34:50.428Z,70.05
2023-04-23T10:35:49.421Z,69.04
2023-04-23T10:36:49.374Z,69.24
2023-04-23T10:37:49.377Z,69.14
2023-04-23T10:38:57.871Z,67.76
2023-04-23T10:39:50.425Z,68.77
2023-04-23T10:40:49.333Z,67.96
2023-04-23T10:41:49.317Z,68.80
2023-04-23T10:42:49.293Z,69.98
2023-04-23T10:43:49.292Z,68.36
2023-04-23T10:44:57.867Z,67.35
2023-04-23T10:45:50.291Z,70.05
2023-04-23T10:46:49.269Z,67.72
2023-04-23T10:47:49.444Z,67.93
2023-04-23T10:48:49.223Z,68.10
2023-04-23T10:49:49.206Z,67.49
2023-04-23T10:51:09.144Z,68.60
2023-04-23T10:52:49.192Z,66.47
2023-04-23T10:53:49.145Z,67.39
2023-04-23T10:54:49.149Z,70.42
2023-04-23T10:55:49.129Z,67.79
2023-04-23T10:56:49.117Z,68.73
2023-04-23T10:57:49.104Z,69.21
2023-04-23T10:58:49.085Z,68.30
2023-04-23T10:59:49.071Z,69.31
2023-04-23T11:00:49.074Z,67.79
2023-04-23T11:01:49.073Z,67.89
2023-04-23T11:02:49.145Z,70.73
2023-04-23T11:03:49.247Z,69.14
2023-04-23T11:04:49.027Z,69.54
2023-04-23T11:05:48.994Z,70.42
2023-04-23T11:06:49.020Z,69.01
2023-04-23T11:07:48.991Z,68.26
2023-04-23T11:08:49.535Z,68.87
2023-04-23T11:09:48.958Z,70.18
2023-04-23T11:10:48.927Z,67.39
2023-04-23T11:11:48.917Z,68.33
2023-04-23T11:12:48.912Z,71.03
2023-04-23T11:13:48.894Z,68.10
2023-04-23T11:14:48.904Z,69.41
2023-04-23T11:15:48.870Z,69.61
2023-04-23T11:16:48.994Z,70.22
2023-04-23T11:17:48.941Z,70.59
2023-04-23T11:18:48.839Z,71.40
2023-04-23T11:19:48.822Z,70.29
2023-04-23T11:20:48.808Z,69.27
2023-04-23T11:21:48.792Z,72.31
2023-04-23T11:22:48.776Z,69.14
2023-04-23T11:23:48.812Z,66.58
2023-04-23T11:24:50.768Z,65.78
2023-04-23T11:25:48.741Z,68.00
2023-04-23T11:26:48.737Z,69.21
2023-04-23T11:27:48.704Z,71.40
2023-04-23T11:28:48.692Z,69.48
2023-04-23T11:29:48.692Z,67.26
2023-04-23T11:30:48.666Z,67.39
2023-04-23T11:32:01.502Z,67.09
2023-04-23T11:32:49.815Z,68.80
2023-04-23T11:33:48.633Z,68.60
2023-04-23T11:34:48.610Z,67.52
2023-04-23T11:35:48.617Z,69.04
2023-04-23T11:36:48.589Z,70.36
2023-04-23T11:37:48.583Z,69.34
2023-04-23T11:38:48.567Z,69.92
2023-04-23T11:39:48.570Z,69.24
2023-04-23T11:40:48.560Z,68.54
2023-04-23T11:41:48.522Z,68.97
2023-04-23T11:42:48.526Z,68.40
2023-04-23T11:43:48.499Z,68.13
2023-04-23T11:44:48.495Z,70.56
2023-04-23T11:45:48.512Z,70.69
2023-04-23T11:46:48.463Z,70.45
2023-04-23T11:47:48.507Z,71.88
2023-04-23T11:48:48.445Z,72.01
2023-04-23T11:49:48.421Z,72.21
2023-04-23T11:50:48.407Z,71.80
2023-04-23T11:51:48.402Z,70.18
2023-04-23T11:52:48.373Z,72.01
2023-04-23T11:53:48.368Z,72.08
2023-04-23T11:54:48.375Z,71.30
2023-04-23T11:55:48.356Z,72.11
2023-04-23T11:56:48.321Z,71.47
2023-04-23T11:57:48.311Z,71.84
2023-04-23T11:58:48.306Z,73.66
2023-04-23T11:59:48.290Z,71.40
2023-04-23T12:00:48.274Z,68.67
2023-04-23T12:01:48.266Z,70.39
2023-04-23T12:02:48.297Z,69.61
2023-04-23T12:03:48.331Z,72.51
2023-04-23T12:04:48.231Z,72.21
2023-04-23T12:05:48.211Z,68.06
2023-04-23T12:06:48.200Z,67.99
2023-04-23T12:07:48.189Z,67.89
2023-04-23T12:08:48.158Z,70.83
2023-04-23T12:09:48.156Z,71.20
2023-04-23T12:10:48.142Z,68.97
2023-04-23T12:11:48.150Z,67.96
2023-04-23T12:12:48.126Z,67.43
2023-04-23T12:13:48.105Z,66.82
2023-04-23T12:14:48.079Z,67.39
2023-04-23T12:15:48.142Z,66.69
2023-04-23T12:16:48.054Z,66.69
2023-04-23T12:17:48.092Z,66.35
2023-04-23T12:18:48.029Z,66.75
2023-04-23T12:19:48.015Z,65.75
2023-04-23T12:20:48.003Z,65.21
2023-04-23T12:21:47.994Z,66.82
2023-04-23T12:22:47.980Z,65.11
2023-04-23T12:23:47.971Z,65.61
2023-04-23T12:24:47.960Z,67.30
2023-04-23T12:25:47.933Z,66.49
2023-04-23T12:26:48.005Z,65.68
2023-04-23T12:27:47.936Z,64.98
2023-04-23T12:28:47.916Z,66.82
2023-04-23T12:29:47.890Z,66.62
2023-04-23T12:30:47.906Z,65.64
2023-04-23T12:31:47.947Z,66.08
2023-04-23T12:32:47.869Z,68.47
2023-04-23T12:33:47.834Z,68.54
2023-04-23T12:34:47.816Z,66.52
2023-04-23T12:35:47.803Z,67.02
2023-04-23T12:36:47.797Z,67.50
2023-04-23T12:37:47.792Z,65.58
2023-04-23T12:38:47.779Z,67.40
2023-04-23T12:39:47.754Z,66.19
2023-04-23T12:40:47.753Z,66.39
2023-04-23T12:41:47.738Z,64.47
2023-04-23T12:42:47.721Z,64.61
2023-04-23T12:43:47.723Z,65.21
2023-04-23T12:44:47.707Z,64.61
2023-04-23T12:45:47.700Z,62.85
2023-04-23T12:46:47.702Z,63.06
2023-04-23T12:47:47.716Z,63.76
2023-04-23T12:48:47.652Z,63.96
2023-04-23T12:49:47.622Z,61.75
2023-04-23T12:50:47.626Z,63.87
2023-04-23T12:51:47.604Z,63.26
2023-04-23T12:52:47.580Z,64.34
2023-04-23T12:53:47.572Z,62.63
2023-04-23T12:54:47.562Z,63.46